Time;durP1;ratioP1;P1;durP2;ratioP2;P2;SDS_P1;SDS_P2;PMS_P1;PMS_P2;Temp;Humidity;BMP_temperature;BMP_pressure;BME280_temperature;BME280_humidity;BME280_pressure;Samples;Min_cycle;Max_cycle;Signal;HPM_P1;HPM_P2
2023/06/04 00:01:52;;;;;;;3.43;1.17;;;23.80;46.50;;;;;;5050565;28;20529;-45
2023/06/04 00:04:23;;;;;;;2.43;1.57;;;23.80;46.40;;;;;;5048558;28;20466;-46
2023/06/04 00:06:52;;;;;;;1.10;0.87;;;23.80;46.50;;;;;;5051440;28;20671;-47
2023/06/04 00:09:20;;;;;;;3.33;1.20;;;23.80;46.70;;;;;;5051082;28;20480;-47
2023/06/04 00:11:49;;;;;;;2.23;1.00;;;23.80;46.50;;;;;;5050742;28;20449;-47
2023/06/04 00:14:17;;;;;;;1.23;1.10;;;23.80;46.60;;;;;;5045634;28;20473;-48
2023/06/04 00:16:46;;;;;;;1.70;1.07;;;23.80;46.70;;;;;;5049576;28;20527;-47
2023/06/04 00:19:14;;;;;;;2.80;1.40;;;23.80;46.50;;;;;;5042550;28;20904;-47
2023/06/04 00:21:44;;;;;;;1.50;1.10;;;23.80;46.60;;;;;;5049899;28;20490;-47
2023/06/04 00:24:13;;;;;;;1.40;1.20;;;23.80;46.60;;;;;;5041980;28;20469;-47
2023/06/04 00:26:41;;;;;;;2.33;1.17;;;23.80;46.60;;;;;;5047325;28;20466;-47
2023/06/04 00:29:10;;;;;;;6.90;1.43;;;23.80;46.60;;;;;;5048405;28;20519;-47
2023/06/04 00:31:38;;;;;;;5.83;1.40;;;23.80;46.60;;;;;;5047738;28;20453;-47
2023/06/04 00:34:07;;;;;;;1.67;1.30;;;23.80;46.60;;;;;;5062003;28;20472;-47
2023/06/04 00:36:36;;;;;;;3.43;1.50;;;23.80;46.60;;;;;;5046488;28;20450;-47
2023/06/04 00:39:06;;;;;;;1.53;1.40;;;23.80;46.60;;;;;;5047869;28;20477;-46
2023/06/04 00:41:34;;;;;;;6.63;1.43;;;23.70;46.70;;;;;;5045508;28;20527;-47
2023/06/04 00:44:06;;;;;;;1.80;1.70;;;23.70;46.50;;;;;;5061090;28;20547;-47
2023/06/04 00:46:37;;;;;;;1.60;1.50;;;23.80;46.60;;;;;;5049347;28;20472;-47
2023/06/04 00:49:06;;;;;;;2.60;1.73;;;23.70;46.50;;;;;;5046340;28;20474;-48
2023/06/04 00:51:35;;;;;;;4.80;1.90;;;23.70;46.60;;;;;;5050398;28;20523;-46
2023/06/04 00:54:08;;;;;;;6.13;2.67;;;23.80;46.70;;;;;;5063422;28;20551;-48
2023/06/04 00:56:40;;;;;;;3.13;1.90;;;23.80;46.60;;;;;;5048044;28;20448;-46
2023/06/04 00:59:10;;;;;;;3.10;1.73;;;23.70;46.70;;;;;;5043219;28;20522;-48
2023/06/04 01:01:54;;;;;;;4.73;2.50;;;23.70;46.60;;;;;;5045539;28;21143;-47
2023/06/04 01:04:29;;;;;;;5.43;2.20;;;23.70;46.60;;;;;;5041330;28;20469;-48
2023/06/04 01:07:01;;;;;;;4.53;1.77;;;23.70;46.70;;;;;;5045329;28;20558;-47
2023/06/04 01:09:32;;;;;;;3.67;1.93;;;23.70;46.70;;;;;;5058157;28;20478;-45
2023/06/04 01:12:01;;;;;;;2.00;1.50;;;23.70;46.60;;;;;;5061244;28;20449;-45
2023/06/04 01:14:33;;;;;;;5.40;2.47;;;23.70;46.70;;;;;;5048892;28;20545;-47
2023/06/04 01:17:08;;;;;;;3.07;1.33;;;23.70;46.70;;;;;;5047104;28;20441;-46
2023/06/04 01:20:03;;;;;;;6.40;2.27;;;23.70;46.70;;;;;;5046767;28;20512;-47
2023/06/04 01:22:40;;;;;;;3.43;1.90;;;23.70;46.80;;;;;;5048385;28;20514;-47
2023/06/04 01:25:19;;;;;;;2.90;1.60;;;23.60;46.60;;;;;;5046560;28;20434;-46
2023/06/04 01:27:55;;;;;;;2.90;1.93;;;23.60;46.70;;;;;;5057847;28;20486;-46
2023/06/04 01:30:26;;;;;;;3.10;1.60;;;23.60;46.70;;;;;;5054074;28;20514;-48
2023/06/04 01:32:56;;;;;;;3.70;1.80;;;23.70;46.70;;;;;;5041148;28;20465;-47
2023/06/04 01:35:27;;;;;;;4.13;2.37;;;23.60;46.60;;;;;;5062575;28;20537;-47
2023/06/04 01:37:56;;;;;;;6.40;1.93;;;23.60;46.70;;;;;;5046869;28;20469;-47
2023/06/04 01:40:27;;;;;;;1.97;1.57;;;23.60;46.60;;;;;;5048099;28;20450;-47
2023/06/04 01:42:55;;;;;;;3.23;2.07;;;23.60;46.70;;;;;;5049730;28;20783;-47
2023/06/04 01:45:24;;;;;;;2.97;1.90;;;23.60;46.60;;;;;;5046089;28;20434;-47
2023/06/04 01:47:55;;;;;;;2.53;2.07;;;23.60;46.70;;;;;;5044882;28;20870;-47
2023/06/04 01:50:25;;;;;;;5.30;1.50;;;23.60;47.90;;;;;;5048014;28;20487;-46
2023/06/04 01:52:54;;;;;;;4.03;2.27;;;23.60;46.70;;;;;;5049326;28;20452;-48
2023/06/04 01:55:25;;;;;;;2.20;1.80;;;23.60;46.70;;;;;;5046707;28;20810;-47
2023/06/04 01:57:54;;;;;;;4.90;2.17;;;23.60;46.80;;;;;;5049245;28;20449;-46
2023/06/04 02:00:23;;;;;;;5.80;2.10;;;23.60;46.70;;;;;;5042576;28;20472;-48
2023/06/04 02:02:52;;;;;;;4.03;2.03;;;23.60;46.80;;;;;;5046996;28;20452;-48
2023/06/04 02:05:22;;;;;;;3.07;2.13;;;23.60;46.80;;;;;;5061136;28;20449;-47
2023/06/04 02:07:51;;;;;;;2.90;1.60;;;23.60;46.70;;;;;;5056265;28;20481;-47
2023/06/04 02:10:20;;;;;;;7.17;1.87;;;23.60;46.80;;;;;;5044768;28;20861;-46
2023/06/04 02:12:58;;;;;;;2.30;1.47;;;23.60;46.90;;;;;;5038066;28;20501;-46
2023/06/04 02:15:28;;;;;;;3.53;1.80;;;23.60;47.00;;;;;;5039765;28;20514;-47
2023/06/04 02:17:59;;;;;;;2.40;1.73;;;23.60;46.90;;;;;;5052799;28;20467;-47
2023/06/04 02:20:28;;;;;;;2.53;1.50;;;23.60;46.90;;;;;;5048967;28;20432;-48
2023/06/04 02:22:57;;;;;;;2.97;1.90;;;23.60;46.90;;;;;;5046699;28;20466;-46
2023/06/04 02:25:27;;;;;;;1.97;1.60;;;23.50;47.00;;;;;;5045382;28;20496;-48
2023/06/04 02:27:58;;;;;;;2.70;1.77;;;23.50;46.80;;;;;;5046398;28;20492;-48
2023/06/04 02:30:26;;;;;;;2.90;2.00;;;23.50;46.80;;;;;;5046375;28;20437;-47
2023/06/04 02:32:56;;;;;;;5.17;1.93;;;23.50;47.00;;;;;;5044286;28;20871;-46
2023/06/04 02:35:24;;;;;;;4.17;2.30;;;23.50;47.00;;;;;;5048690;28;20797;-48
2023/06/04 02:37:53;;;;;;;2.87;1.50;;;23.50;47.00;;;;;;5056867;28;20463;-48
2023/06/04 02:40:21;;;;;;;4.30;1.87;;;23.50;47.10;;;;;;5046147;28;20494;-48
2023/06/04 02:42:50;;;;;;;2.83;1.90;;;23.50;47.10;;;;;;5062914;28;20941;-47
2023/06/04 02:45:20;;;;;;;2.17;1.97;;;23.50;47.00;;;;;;5047184;28;20511;-46
2023/06/04 02:47:49;;;;;;;1.97;1.60;;;23.50;47.00;;;;;;5045001;28;20484;-47
2023/06/04 02:50:18;;;;;;;2.10;1.90;;;23.50;47.00;;;;;;5064303;28;20510;-48
2023/06/04 02:52:46;;;;;;;3.00;1.80;;;23.50;47.00;;;;;;5047622;28;20442;-48
2023/06/04 02:55:15;;;;;;;3.00;1.60;;;23.50;47.20;;;;;;5054571;28;20437;-48
2023/06/04 02:57:44;;;;;;;1.87;1.40;;;23.40;47.10;;;;;;5044799;28;20906;-46
2023/06/04 03:00:14;;;;;;;3.70;1.90;;;23.50;47.20;;;;;;5040760;28;20954;-47
2023/06/04 03:02:46;;;;;;;3.87;1.77;;;23.50;47.00;;;;;;5044471;28;20982;-47
2023/06/04 03:05:17;;;;;;;2.07;1.87;;;23.50;47.10;;;;;;5040288;28;20985;-45
2023/06/04 03:07:47;;;;;;;3.20;1.90;;;23.40;47.00;;;;;;5049231;28;20874;-47
2023/06/04 03:10:17;;;;;;;1.83;1.73;;;23.40;47.00;;;;;;5038354;28;20463;-48
2023/06/04 03:12:46;;;;;;;3.00;1.47;;;23.40;47.00;;;;;;5059458;28;20985;-47
2023/06/04 03:15:14;;;;;;;6.13;1.93;;;23.40;47.10;;;;;;5039601;28;20448;-46
2023/06/04 03:17:45;;;;;;;2.47;1.93;;;23.40;47.20;;;;;;5047134;28;20499;-47
2023/06/04 03:20:13;;;;;;;2.47;2.07;;;23.40;47.00;;;;;;5056859;28;20459;-48
2023/06/04 03:22:42;;;;;;;2.47;1.93;;;23.40;47.10;;;;;;5046543;28;20945;-45
2023/06/04 03:25:11;;;;;;;3.50;2.60;;;23.40;47.20;;;;;;5053406;28;20446;-46
2023/06/04 03:27:40;;;;;;;2.33;1.70;;;;;;;;;;5056090;28;20524;-47
2023/06/04 03:30:09;;;;;;;2.50;1.83;;;23.40;46.10;;;;;;5050724;28;20903;-48
2023/06/04 03:33:05;;;;;;;2.47;1.70;;;23.40;47.10;;;;;;5041761;28;20440;-45
2023/06/04 03:35:34;;;;;;;2.03;1.83;;;23.40;47.10;;;;;;5059856;28;20442;-47
2023/06/04 03:38:03;;;;;;;2.00;1.80;;;23.30;47.10;;;;;;5030986;28;20474;-48
2023/06/04 03:40:33;;;;;;;3.00;1.67;;;23.30;47.00;;;;;;5045006;28;20445;-47
2023/06/04 03:43:04;;;;;;;2.97;1.90;;;23.30;47.10;;;;;;5048792;28;20500;-45
2023/06/04 03:45:33;;;;;;;2.60;2.23;;;23.30;47.10;;;;;;5044868;28;20532;-48
2023/06/04 03:48:02;;;;;;;3.20;2.00;;;23.30;47.10;;;;;;5049048;28;20534;-47
2023/06/04 03:50:33;;;;;;;2.73;1.77;;;23.30;47.20;;;;;;5050144;28;20536;-46
2023/06/04 03:53:04;;;;;;;4.50;2.47;;;23.30;47.20;;;;;;5050134;28;20434;-47
2023/06/04 03:55:34;;;;;;;1.90;1.43;;;23.30;47.20;;;;;;5048426;28;20477;-48
2023/06/04 03:58:04;;;;;;;2.80;1.57;;;23.30;47.20;;;;;;5040505;28;20541;-48
2023/06/04 04:00:33;;;;;;;3.07;1.80;;;23.30;47.40;;;;;;5062683;28;20448;-47
2023/06/04 04:03:04;;;;;;;1.70;1.60;;;23.30;47.20;;;;;;5066444;28;20530;-49
2023/06/04 04:05:35;;;;;;;3.00;2.13;;;23.20;47.40;;;;;;5049491;28;20825;-46
2023/06/04 04:08:05;;;;;;;3.50;2.10;;;23.30;47.50;;;;;;5050736;28;20478;-45
2023/06/04 04:10:35;;;;;;;2.37;1.80;;;23.20;47.20;;;;;;5048104;28;20588;-45
2023/06/04 04:13:05;;;;;;;4.10;2.03;;;23.20;47.30;;;;;;5047768;28;20450;-45
2023/06/04 04:15:37;;;;;;;1.97;1.77;;;23.20;47.30;;;;;;5044323;28;20503;-46
2023/06/04 04:18:08;;;;;;;2.80;1.97;;;23.20;47.30;;;;;;5065077;28;20460;-46
2023/06/04 04:20:39;;;;;;;3.13;1.83;;;23.20;47.40;;;;;;5048610;28;20457;-48
2023/06/04 04:23:11;;;;;;;2.70;1.80;;;23.20;47.50;;;;;;5049336;28;20471;-48
2023/06/04 04:25:43;;;;;;;2.43;1.97;;;23.20;47.50;;;;;;5047904;28;20454;-48
2023/06/04 04:28:12;;;;;;;2.20;1.93;;;23.20;47.50;;;;;;5058835;28;20720;-47
2023/06/04 04:30:42;;;;;;;2.70;1.67;;;23.20;47.40;;;;;;5048251;28;20436;-48
2023/06/04 04:33:15;;;;;;;1.77;1.67;;;23.20;47.40;;;;;;5064470;28;20967;-46
2023/06/04 04:35:48;;;;;;;2.80;1.73;;;23.20;47.50;;;;;;5049299;28;21012;-46
2023/06/04 04:38:23;;;;;;;3.13;2.00;;;23.20;47.50;;;;;;5042491;28;20537;-47
2023/06/04 04:40:57;;;;;;;2.40;1.60;;;23.20;47.50;;;;;;5046709;28;20455;-45
2023/06/04 04:43:32;;;;;;;3.60;1.67;;;23.20;47.50;;;;;;5056560;28;20427;-46
2023/06/04 04:46:07;;;;;;;2.57;2.20;;;23.20;47.70;;;;;;5063594;28;20436;-47
2023/06/04 04:48:38;;;;;;;2.10;1.90;;;23.20;47.60;;;;;;5065198;28;21017;-46
2023/06/04 04:51:08;;;;;;;1.87;1.53;;;23.20;47.60;;;;;;5046353;28;20572;-44
2023/06/04 04:53:37;;;;;;;1.93;1.73;;;23.10;47.60;;;;;;5056466;28;20506;-47
2023/06/04 04:56:06;;;;;;;2.90;1.80;;;23.10;47.60;;;;;;5046474;28;20486;-48
2023/06/04 04:58:39;;;;;;;2.60;1.60;;;23.10;47.60;;;;;;5049282;28;20514;-46
2023/06/04 05:01:08;;;;;;;2.77;1.80;;;23.10;47.50;;;;;;5042831;28;20445;-47
2023/06/04 05:03:38;;;;;;;1.60;1.50;;;23.10;47.70;;;;;;5052334;28;20446;-46
2023/06/04 05:06:08;;;;;;;2.80;2.30;;;23.10;47.60;;;;;;5048091;28;20479;-48
2023/06/04 05:08:37;;;;;;;2.60;1.77;;;23.10;47.60;;;;;;5048473;28;20594;-46
2023/06/04 05:11:06;;;;;;;3.23;1.80;;;23.10;47.80;;;;;;5046385;28;20440;-46
2023/06/04 05:13:36;;;;;;;2.33;1.70;;;23.10;47.70;;;;;;5055780;28;20853;-48
2023/06/04 05:16:06;;;;;;;3.03;1.77;;;23.10;47.70;;;;;;5047123;28;20448;-47
2023/06/04 05:18:41;;;;;;;2.10;1.73;;;23.10;47.70;;;;;;5044955;28;20470;-45
2023/06/04 05:21:13;;;;;;;5.80;2.20;;;23.10;47.70;;;;;;5047904;28;20512;-46
2023/06/04 05:23:50;;;;;;;2.10;1.90;;;23.10;47.70;;;;;;5063622;28;20461;-46
2023/06/04 05:26:23;;;;;;;2.20;1.63;;;23.10;47.70;;;;;;5041324;28;20987;-45
2023/06/04 05:28:53;;;;;;;3.70;2.07;;;23.10;47.70;;;;;;5046394;28;20790;-48
2023/06/04 05:31:27;;;;;;;3.37;2.60;;;23.00;47.60;;;;;;5047209;28;20444;-48
2023/06/04 05:33:59;;;;;;;2.23;1.90;;;23.10;47.60;;;;;;5047361;28;20470;-46
2023/06/04 05:36:31;;;;;;;2.20;1.50;;;23.10;47.70;;;;;;5065216;28;20435;-48
2023/06/04 05:39:04;;;;;;;3.30;2.33;;;23.10;47.50;;;;;;5047385;28;20481;-47
2023/06/04 05:41:40;;;;;;;1.83;1.73;;;23.10;47.50;;;;;;5045795;28;20802;-48
2023/06/04 05:44:10;;;;;;;2.30;1.83;;;23.00;47.30;;;;;;5037705;28;20464;-48
2023/06/04 05:46:40;;;;;;;1.77;1.50;;;23.10;47.80;;;;;;5046902;28;20448;-47
2023/06/04 05:49:09;;;;;;;1.90;1.70;;;23.00;47.80;;;;;;5063887;28;20565;-47
2023/06/04 05:51:39;;;;;;;3.10;1.80;;;23.10;48.00;;;;;;5047978;28;21101;-46
2023/06/04 05:54:08;;;;;;;1.83;1.70;;;23.00;47.80;;;;;;5060758;28;20857;-46
2023/06/04 05:56:42;;;;;;;2.70;1.73;;;23.00;47.90;;;;;;5046673;28;20445;-47
2023/06/04 05:59:11;;;;;;;1.90;1.53;;;23.00;48.00;;;;;;5042002;28;21007;-46
2023/06/04 06:01:41;;;;;;;1.70;1.60;;;23.10;48.30;;;;;;5046679;28;20503;-47
2023/06/04 06:04:10;;;;;;;2.10;1.90;;;23.00;48.20;;;;;;5044504;28;20844;-49
2023/06/04 06:06:43;;;;;;;2.90;1.60;;;23.00;48.30;;;;;;5043903;28;20880;-46
2023/06/04 06:09:12;;;;;;;1.60;1.50;;;23.00;47.90;;;;;;5051124;28;20479;-46
2023/06/04 06:11:41;;;;;;;2.07;1.63;;;23.10;48.30;;;;;;5048536;28;20438;-45
2023/06/04 06:14:10;;;;;;;2.70;1.70;;;23.00;48.00;;;;;;5049870;28;20638;-46
2023/06/04 06:16:39;;;;;;;1.50;1.40;;;23.00;48.30;;;;;;5042640;28;20450;-47
2023/06/04 06:19:07;;;;;;;1.70;1.60;;;23.00;48.30;;;;;;5063518;28;20840;-46
2023/06/04 06:21:36;;;;;;;1.70;1.40;;;23.00;47.90;;;;;;5062201;28;20488;-46
2023/06/04 06:24:06;;;;;;;1.80;1.60;;;23.00;47.90;;;;;;5050408;28;20503;-47
2023/06/04 06:26:35;;;;;;;2.07;1.43;;;23.00;48.50;;;;;;5048430;28;20838;-47
2023/06/04 06:29:05;;;;;;;2.57;1.67;;;23.00;47.80;;;;;;5047203;28;20844;-46
2023/06/04 06:31:35;;;;;;;1.80;1.57;;;23.00;47.70;;;;;;5038936;28;20505;-47
2023/06/04 06:34:03;;;;;;;1.87;1.50;;;23.00;47.70;;;;;;5051063;28;20477;-47
2023/06/04 06:36:32;;;;;;;2.27;2.07;;;23.00;47.80;;;;;;5048209;28;20445;-45
2023/06/04 06:39:01;;;;;;;1.90;1.70;;;23.00;47.90;;;;;;5043847;28;20518;-47
2023/06/04 06:41:31;;;;;;;2.47;1.80;;;23.00;47.80;;;;;;5045804;28;20843;-46
2023/06/04 06:44:00;;;;;;;1.57;1.47;;;23.00;47.80;;;;;;5048767;28;20560;-48
2023/06/04 06:46:28;;;;;;;2.00;1.80;;;23.00;47.50;;;;;;5040463;28;20522;-47
2023/06/04 06:48:58;;;;;;;2.37;1.60;;;23.00;47.70;;;;;;5046435;28;20831;-48
2023/06/04 06:51:26;;;;;;;2.30;1.90;;;23.00;47.70;;;;;;5047383;28;20460;-47
2023/06/04 06:53:55;;;;;;;2.43;2.00;;;23.00;47.40;;;;;;5050495;28;20507;-47
2023/06/04 06:56:23;;;;;;;2.23;1.90;;;23.00;46.90;;;;;;5063398;28;20952;-47
2023/06/04 06:58:53;;;;;;;3.43;1.77;;;23.00;45.50;;;;;;5044007;28;20468;-44
2023/06/04 07:01:22;;;;;;;3.30;1.83;;;23.00;46.00;;;;;;5060729;28;20453;-46
2023/06/04 07:03:51;;;;;;;2.13;1.73;;;23.00;46.60;;;;;;5052939;28;21006;-47
2023/06/04 07:06:20;;;;;;;2.13;1.60;;;23.00;46.10;;;;;;5051509;28;21014;-48
2023/06/04 07:08:49;;;;;;;2.00;1.27;;;23.00;46.50;;;;;;5046439;28;20499;-49
2023/06/04 07:11:18;;;;;;;1.80;1.40;;;23.00;45.60;;;;;;5050039;28;20562;-45
2023/06/04 07:13:46;;;;;;;2.33;1.73;;;23.00;46.70;;;;;;5044571;28;20850;-47
2023/06/04 07:16:16;;;;;;;1.90;1.70;;;23.00;45.90;;;;;;5043241;28;20443;-47
2023/06/04 07:18:48;;;;;;;2.50;1.50;;;23.00;45.80;;;;;;5049175;28;20477;-47
2023/06/04 07:21:19;;;;;;;2.70;2.10;;;23.00;46.80;;;;;;5042312;28;20450;-47
2023/06/04 07:23:49;;;;;;;2.40;1.70;;;23.00;46.40;;;;;;5047147;28;20892;-48
2023/06/04 07:26:18;;;;;;;2.13;1.67;;;23.00;45.10;;;;;;5051814;28;20983;-47
2023/06/04 07:28:47;;;;;;;1.47;1.33;;;23.00;45.30;;;;;;5050233;28;20477;-47
2023/06/04 07:31:18;;;;;;;2.93;1.50;;;23.00;46.10;;;;;;5058635;28;20474;-47
2023/06/04 07:33:46;;;;;;;2.17;1.63;;;23.00;46.60;;;;;;5053261;28;20455;-47
2023/06/04 07:36:15;;;;;;;1.60;1.50;;;23.00;46.20;;;;;;5040670;28;20445;-46
2023/06/04 07:38:44;;;;;;;1.73;1.63;;;23.00;46.70;;;;;;5049102;28;20485;-45
2023/06/04 07:41:15;;;;;;;2.40;1.50;;;23.00;46.60;;;;;;5046579;28;20446;-45
2023/06/04 07:43:44;;;;;;;1.97;1.77;;;23.00;46.80;;;;;;5061552;28;20641;-46
2023/06/04 07:46:13;;;;;;;2.33;1.97;;;23.00;47.00;;;;;;5039218;28;20971;-47
2023/06/04 07:48:44;;;;;;;1.70;1.43;;;23.00;46.80;;;;;;5045937;28;20514;-45
2023/06/04 07:51:14;;;;;;;3.97;1.50;;;23.00;46.80;;;;;;5059423;28;20474;-45
2023/06/04 07:53:44;;;;;;;1.70;1.60;;;23.00;47.00;;;;;;5058777;28;20479;-47
2023/06/04 07:56:13;;;;;;;2.53;1.30;;;23.00;47.50;;;;;;5058778;28;20541;-47
2023/06/04 07:58:41;;;;;;;1.80;1.40;;;23.00;47.50;;;;;;5049663;28;20987;-45
2023/06/04 08:01:13;;;;;;;3.60;2.17;;;23.00;47.70;;;;;;5047091;28;20442;-47
2023/06/04 08:03:44;;;;;;;5.43;2.00;;;23.00;43.90;;;;;;5049474;28;21009;-45
2023/06/04 08:06:16;;;;;;;2.50;1.70;;;23.10;43.70;;;;;;5064590;28;20875;-48
2023/06/04 08:08:45;;;;;;;2.37;2.17;;;23.00;44.30;;;;;;5044265;28;20490;-45
2023/06/04 08:11:15;;;;;;;2.67;1.67;;;23.00;44.50;;;;;;5061392;28;20852;-47
2023/06/04 08:13:44;;;;;;;2.43;1.90;;;23.00;45.10;;;;;;5047561;28;20474;-46
2023/06/04 08:16:12;;;;;;;4.20;1.73;;;23.00;45.50;;;;;;5062770;28;20503;-47
2023/06/04 08:18:42;;;;;;;2.03;1.83;;;23.00;45.40;;;;;;5066868;28;20824;-47
2023/06/04 08:21:12;;;;;;;2.10;1.47;;;23.00;45.40;;;;;;5040819;28;20447;-46
2023/06/04 08:23:40;;;;;;;2.20;1.77;;;22.90;45.60;;;;;;5049424;28;20549;-47
2023/06/04 08:26:09;;;;;;;2.10;1.40;;;23.00;45.80;;;;;;5046191;28;20538;-47
2023/06/04 08:28:39;;;;;;;2.20;1.50;;;22.90;45.90;;;;;;5048171;28;20492;-48
2023/06/04 08:31:08;;;;;;;2.17;1.47;;;23.00;46.20;;;;;;5043788;28;20486;-47
2023/06/04 08:33:37;;;;;;;1.43;1.33;;;22.90;46.20;;;;;;5052067;28;20459;-48
2023/06/04 08:36:07;;;;;;;2.00;1.80;;;22.90;46.10;;;;;;5048278;28;20990;-47
2023/06/04 08:38:36;;;;;;;2.13;1.87;;;22.90;46.20;;;;;;5047410;28;20549;-47
2023/06/04 08:41:13;;;;;;;1.97;1.53;;;22.90;46.40;;;;;;5043404;28;20443;-46
2023/06/04 08:43:43;;;;;;;2.17;1.30;;;22.90;46.40;;;;;;5040320;28;20488;-45
2023/06/04 08:46:15;;;;;;;1.97;1.77;;;22.90;46.70;;;;;;5044283;28;20871;-44
2023/06/04 08:48:44;;;;;;;2.50;1.70;;;22.90;46.70;;;;;;5045261;28;20470;-47
2023/06/04 08:51:15;;;;;;;2.10;1.47;;;22.90;46.70;;;;;;5057365;28;20464;-47
2023/06/04 08:53:47;;;;;;;2.47;1.57;;;22.90;46.80;;;;;;5053557;28;20483;-47
2023/06/04 08:56:17;;;;;;;1.90;1.70;;;22.90;46.60;;;;;;5047981;28;20457;-47
2023/06/04 08:58:46;;;;;;;2.30;1.50;;;22.90;46.80;;;;;;5048661;28;20464;-48
2023/06/04 09:01:19;;;;;;;2.33;1.63;;;22.90;46.90;;;;;;5037953;28;20929;-46
2023/06/04 09:03:48;;;;;;;2.43;1.77;;;22.90;48.00;;;;;;5053133;28;20496;-49
2023/06/04 09:06:18;;;;;;;2.40;1.60;;;22.90;47.00;;;;;;5049631;28;20422;-46
2023/06/04 09:08:47;;;;;;;1.70;1.60;;;22.90;47.00;;;;;;5043133;28;20506;-47
2023/06/04 09:11:30;;;;;;;1.53;1.43;;;22.90;46.90;;;;;;5046448;28;20476;-46
2023/06/04 09:14:02;;;;;;;1.70;1.20;;;22.90;47.00;;;;;;5061511;28;20846;-46
2023/06/04 09:16:37;;;;;;;2.90;2.00;;;22.90;47.10;;;;;;5058857;28;20450;-48
2023/06/04 09:19:06;;;;;;;1.47;1.37;;;22.90;47.00;;;;;;5048504;28;20477;-46
2023/06/04 09:21:47;;;;;;;2.03;1.53;;;22.90;47.10;;;;;;5048554;28;20501;-47
2023/06/04 09:24:16;;;;;;;1.20;0.93;;;22.90;46.70;;;;;;5045037;28;20504;-45
2023/06/04 09:26:46;;;;;;;1.60;1.30;;;22.90;47.30;;;;;;5023280;28;20710;-46
2023/06/04 09:29:15;;;;;;;1.77;1.20;;;;;;;;;;5064049;28;20460;-48
2023/06/04 09:31:47;;;;;;;2.73;1.70;;;22.90;46.00;;;;;;5043530;28;20478;-46
2023/06/04 09:34:16;;;;;;;1.70;1.50;;;22.90;46.70;;;;;;5038317;28;20475;-47
2023/06/04 09:36:46;;;;;;;1.63;1.53;;;22.90;46.90;;;;;;5041204;28;21015;-46
2023/06/04 09:39:19;;;;;;;2.03;1.33;;;22.90;46.50;;;;;;5040066;28;20484;-46
2023/06/04 09:41:59;;;;;;;1.67;1.30;;;22.90;47.20;;;;;;5045860;28;20433;-48
2023/06/04 09:44:28;;;;;;;2.33;2.00;;;22.90;47.20;;;;;;5048310;28;20481;-46
2023/06/04 09:46:57;;;;;;;1.87;1.40;;;22.90;46.90;;;;;;5045516;28;20463;-46
2023/06/04 09:49:26;;;;;;;2.07;1.30;;;22.90;45.90;;;;;;5040235;28;20486;-45
2023/06/04 09:51:57;;;;;;;1.97;1.50;;;22.90;45.60;;;;;;5054729;28;20466;-47
2023/06/04 09:54:36;;;;;;;2.70;1.60;;;22.90;45.30;;;;;;5036964;28;20482;-46
2023/06/04 09:57:07;;;;;;;2.37;1.30;;;23.00;46.00;;;;;;5053226;28;20987;-47
2023/06/04 09:59:40;;;;;;;2.80;1.63;;;22.90;46.30;;;;;;5036380;28;20616;-47
2023/06/04 10:02:12;;;;;;;2.50;1.70;;;22.90;46.20;;;;;;5046109;28;20935;-47
2023/06/04 10:04:43;;;;;;;1.97;1.60;;;22.90;45.80;;;;;;5060202;28;20481;-46
2023/06/04 10:07:15;;;;;;;3.17;1.43;;;22.90;46.40;;;;;;5060712;28;20525;-45
2023/06/04 10:09:46;;;;;;;1.63;1.47;;;22.90;46.70;;;;;;5043469;28;20477;-46
2023/06/04 10:12:16;;;;;;;4.30;2.07;;;22.90;46.20;;;;;;5054462;28;20480;-45
2023/06/04 10:14:52;;;;;;;5.67;1.60;;;22.90;41.00;;;;;;5052449;28;20569;-45
2023/06/04 10:17:25;;;;;;;2.17;1.70;;;23.00;38.30;;;;;;5042929;28;20454;-46
2023/06/04 10:19:55;;;;;;;4.47;1.93;;;23.00;39.00;;;;;;5042717;28;20471;-45
2023/06/04 10:22:25;;;;;;;2.50;1.60;;;23.00;39.40;;;;;;5056629;28;20533;-44
2023/06/04 10:24:54;;;;;;;2.63;2.07;;;23.00;39.20;;;;;;5046966;28;20478;-46
2023/06/04 10:27:24;;;;;;;2.23;1.47;;;23.10;39.40;;;;;;5041321;28;20450;-47
2023/06/04 10:29:53;;;;;;;2.77;1.63;;;23.10;38.90;;;;;;5038434;28;20473;-45
2023/06/04 10:32:22;;;;;;;3.17;1.80;;;23.20;39.10;;;;;;5044017;28;20482;-45
2023/06/04 10:34:52;;;;;;;7.33;2.33;;;23.20;38.00;;;;;;5056718;28;20911;-44
2023/06/04 10:37:22;;;;;;;3.93;2.23;;;23.20;37.80;;;;;;5045444;28;20993;-46
2023/06/04 10:39:56;;;;;;;2.27;2.07;;;23.20;38.10;;;;;;5061302;28;20466;-44
2023/06/04 10:42:26;;;;;;;2.50;1.93;;;23.20;37.80;;;;;;5045686;28;20477;-46
2023/06/04 10:44:56;;;;;;;3.80;1.80;;;23.20;37.20;;;;;;5065538;28;20482;-47
2023/06/04 10:47:29;;;;;;;3.70;2.10;;;23.20;37.90;;;;;;5064513;28;20446;-46
2023/06/04 10:50:09;;;;;;;2.70;1.87;;;23.20;36.30;;;;;;5063624;28;21258;-48
2023/06/04 10:52:38;;;;;;;4.10;2.43;;;23.30;37.40;;;;;;5048987;28;20477;-48
2023/06/04 10:55:09;;;;;;;3.60;1.80;;;23.30;38.00;;;;;;5046595;28;20450;-47
2023/06/04 10:57:38;;;;;;;4.70;2.43;;;23.20;37.90;;;;;;5048303;28;21001;-48
2023/06/04 11:00:10;;;;;;;3.40;2.50;;;23.20;37.80;;;;;;5049901;28;20455;-48
2023/06/04 11:02:50;;;;;;;3.13;2.00;;;23.20;37.80;;;;;;5041489;28;20832;-47
2023/06/04 11:05:20;;;;;;;3.00;2.03;;;23.20;37.80;;;;;;5043473;28;20456;-48
2023/06/04 11:07:51;;;;;;;2.97;1.80;;;23.20;37.80;;;;;;5046902;28;20479;-48
2023/06/04 11:10:33;;;;;;;6.90;2.40;;;23.30;37.90;;;;;;5051472;28;20525;-46
2023/06/04 11:13:03;;;;;;;2.17;1.97;;;23.20;37.40;;;;;;5047422;28;20471;-46
2023/06/04 11:15:40;;;;;;;4.43;2.43;;;23.20;36.40;;;;;;5040765;28;20964;-46
2023/06/04 11:18:15;;;;;;;3.33;2.20;;;23.20;38.30;;;;;;5050342;28;20473;-49
2023/06/04 11:20:45;;;;;;;2.17;1.70;;;23.20;38.10;;;;;;5051638;28;20450;-47
2023/06/04 11:23:15;;;;;;;2.00;1.80;;;23.10;36.10;;;;;;5047495;28;20505;-47
2023/06/04 11:25:45;;;;;;;5.53;2.00;;;23.10;37.70;;;;;;5060645;28;20474;-49
2023/06/04 11:28:18;;;;;;;2.47;1.70;;;23.10;33.90;;;;;;5066082;28;20461;-48
2023/06/04 11:30:57;;;;;;;4.40;2.13;;;23.00;34.60;;;;;;5064965;28;20446;-47
2023/06/04 11:33:26;;;;;;;5.30;2.30;;;23.00;37.60;;;;;;5065292;28;20478;-48
2023/06/04 11:35:55;;;;;;;2.13;1.93;;;23.10;36.30;;;;;;5060683;28;20451;-47
2023/06/04 11:38:24;;;;;;;3.47;2.30;;;23.10;35.40;;;;;;5064105;28;20469;-47
2023/06/04 11:41:02;;;;;;;2.67;1.60;;;23.10;35.20;;;;;;5059496;28;20532;-48
2023/06/04 11:43:30;;;;;;;2.90;2.13;;;23.10;36.20;;;;;;5062156;28;20437;-48
2023/06/04 11:45:59;;;;;;;2.23;1.83;;;23.10;37.00;;;;;;5058123;28;20935;-46
2023/06/04 11:48:30;;;;;;;2.63;1.50;;;23.20;34.70;;;;;;5050058;28;21055;-46
2023/06/04 11:50:59;;;;;;;3.50;2.23;;;23.20;34.90;;;;;;5066858;28;20434;-46
2023/06/04 11:53:30;;;;;;;4.30;2.63;;;23.20;37.20;;;;;;5064342;28;20497;-46
2023/06/04 11:56:01;;;;;;;2.10;1.73;;;23.20;35.30;;;;;;5066006;28;20445;-47
2023/06/04 11:58:29;;;;;;;6.70;2.83;;;23.20;34.60;;;;;;5065333;28;20538;-47
2023/06/04 12:00:58;;;;;;;1.90;1.70;;;23.20;37.80;;;;;;5063235;28;20780;-45
2023/06/04 12:03:40;;;;;;;2.27;2.00;;;23.20;37.80;;;;;;5067147;28;20448;-46
2023/06/04 12:06:13;;;;;;;4.93;1.63;;;23.20;37.80;;;;;;5065160;28;20946;-47
2023/06/04 12:08:49;;;;;;;1.67;1.40;;;23.20;37.80;;;;;;5042909;28;20480;-45
2023/06/04 12:11:31;;;;;;;2.00;1.80;;;23.10;38.60;;;;;;5063598;28;20484;-46
2023/06/04 12:14:01;;;;;;;6.20;2.03;;;23.10;39.40;;;;;;5063023;28;20464;-47
2023/06/04 12:16:29;;;;;;;2.77;1.70;;;23.20;40.90;;;;;;5063976;28;20449;-47
2023/06/04 12:19:08;;;;;;;1.90;1.70;;;23.20;39.80;;;;;;5062857;28;20490;-47
2023/06/04 12:21:38;;;;;;;1.67;1.40;;;23.20;39.60;;;;;;5047586;28;20454;-47
2023/06/04 12:24:11;;;;;;;2.27;2.00;;;23.20;39.80;;;;;;5062105;28;20998;-47
2023/06/04 12:26:45;;;;;;;3.87;1.70;;;23.20;39.40;;;;;;5046692;28;20452;-46
2023/06/04 12:29:19;;;;;;;2.13;1.60;;;23.20;41.00;;;;;;5040636;28;20489;-46
2023/06/04 12:32:02;;;;;;;2.43;1.60;;;23.20;40.20;;;;;;5085081;28;20455;-45
2023/06/04 12:34:34;;;;;;;2.53;2.00;;;23.20;40.30;;;;;;5085487;28;20901;-45
2023/06/04 12:37:06;;;;;;;3.07;2.10;;;23.20;40.50;;;;;;5090255;28;20520;-47
2023/06/04 12:39:36;;;;;;;3.20;2.27;;;23.20;40.20;;;;;;5088130;28;20483;-45
2023/06/04 12:42:08;;;;;;;3.13;1.63;;;23.20;41.20;;;;;;5089328;28;20494;-47
2023/06/04 12:44:37;;;;;;;2.40;2.20;;;23.20;41.60;;;;;;5083853;28;20479;-48
2023/06/04 12:47:07;;;;;;;3.57;1.67;;;23.30;41.70;;;;;;5070820;28;20445;-45
2023/06/04 12:49:36;;;;;;;1.87;1.67;;;23.30;42.10;;;;;;5076020;28;20478;-46
2023/06/04 12:52:05;;;;;;;2.00;1.60;;;23.30;41.80;;;;;;5083200;28;20777;-47
2023/06/04 12:54:34;;;;;;;3.97;2.10;;;23.30;41.60;;;;;;5085936;28;20483;-45
2023/06/04 12:57:03;;;;;;;3.00;1.60;;;23.30;41.30;;;;;;5062864;28;20435;-47
2023/06/04 12:59:33;;;;;;;1.67;1.57;;;23.30;40.80;;;;;;5068483;28;20486;-48
2023/06/04 13:02:02;;;;;;;5.40;2.10;;;;;;;;;;5079454;28;20449;-46
2023/06/04 13:04:31;;;;;;;4.20;2.03;;;23.30;42.10;;;;;;5082113;28;20457;-49
2023/06/04 13:07:00;;;;;;;2.83;1.90;;;23.40;41.00;;;;;;5070900;28;20446;-47